sensor_id;sensor_type;location;lat;lon;timestamp;P1;durP1;ratioP1;P2;durP2;ratioP2
77866;SDS011;67271;59.120;37.970;2023-06-14T00:05:11;5.38;;;3.10;;
77866;SDS011;67271;59.120;37.970;2023-06-14T00:07:39;5.35;;;3.50;;
77866;SDS011;67271;59.120;37.970;2023-06-14T00:10:10;4.47;;;3.38;;
77866;SDS011;67271;59.120;37.970;2023-06-14T00:12:37;5.55;;;2.88;;
77866;SDS011;67271;59.120;37.970;2023-06-14T00:15:04;5.07;;;3.83;;
77866;SDS011;67271;59.120;37.970;2023-06-14T00:17:31;4.38;;;2.70;;
77866;SDS011;67271;59.120;37.970;2023-06-14T00:19:57;8.48;;;4.00;;
77866;SDS011;67271;59.120;37.970;2023-06-14T00:22:24;5.88;;;3.10;;
77866;SDS011;67271;59.120;37.970;2023-06-14T00:24:50;4.45;;;3.05;;
77866;SDS011;67271;59.120;37.970;2023-06-14T00:27:17;4.50;;;2.90;;
77866;SDS011;67271;59.120;37.970;2023-06-14T00:29:43;6.45;;;3.35;;
77866;SDS011;67271;59.120;37.970;2023-06-14T00:32:09;5.85;;;3.22;;
77866;SDS011;67271;59.120;37.970;2023-06-14T00:34:35;7.63;;;3.35;;
77866;SDS011;67271;59.120;37.970;2023-06-14T00:37:01;6.22;;;3.55;;
77866;SDS011;67271;59.120;37.970;2023-06-14T00:39:27;8.02;;;3.28;;
77866;SDS011;67271;59.120;37.970;2023-06-14T00:41:54;7.18;;;3.72;;
77866;SDS011;67271;59.120;37.970;2023-06-14T00:44:20;5.55;;;3.20;;
77866;SDS011;67271;59.120;37.970;2023-06-14T00:46:47;3.83;;;2.70;;
77866;SDS011;67271;59.120;37.970;2023-06-14T00:49:14;5.25;;;3.03;;
77866;SDS011;67271;59.120;37.970;2023-06-14T00:51:42;4.22;;;3.17;;
77866;SDS011;67271;59.120;37.970;2023-06-14T00:54:08;5.65;;;3.13;;
77866;SDS011;67271;59.120;37.970;2023-06-14T00:56:36;5.97;;;3.53;;
77866;SDS011;67271;59.120;37.970;2023-06-14T00:59:02;4.32;;;3.15;;
77866;SDS011;67271;59.120;37.970;2023-06-14T01:01:30;6.97;;;3.40;;
77866;SDS011;67271;59.120;37.970;2023-06-14T01:03:59;5.55;;;3.00;;
77866;SDS011;67271;59.120;37.970;2023-06-14T01:09:01;5.63;;;2.85;;
77866;SDS011;67271;59.120;37.970;2023-06-14T01:14:30;6.85;;;2.90;;
77866;SDS011;67271;59.120;37.970;2023-06-14T01:16:59;3.95;;;2.60;;
77866;SDS011;67271;59.120;37.970;2023-06-14T01:19:25;4.38;;;2.70;;
77866;SDS011;67271;59.120;37.970;2023-06-14T01:21:54;5.20;;;2.78;;
77866;SDS011;67271;59.120;37.970;2023-06-14T01:24:21;3.72;;;2.83;;
77866;SDS011;67271;59.120;37.970;2023-06-14T01:26:52;4.57;;;2.95;;
77866;SDS011;67271;59.120;37.970;2023-06-14T01:29:24;3.33;;;2.63;;
77866;SDS011;67271;59.120;37.970;2023-06-14T01:31:53;3.80;;;2.70;;
77866;SDS011;67271;59.120;37.970;2023-06-14T01:34:20;3.75;;;2.70;;
77866;SDS011;67271;59.120;37.970;2023-06-14T01:36:50;4.30;;;3.00;;
77866;SDS011;67271;59.120;37.970;2023-06-14T01:39:20;6.40;;;3.35;;
77866;SDS011;67271;59.120;37.970;2023-06-14T01:41:47;5.68;;;3.05;;
77866;SDS011;67271;59.120;37.970;2023-06-14T01:44:16;4.50;;;2.80;;
77866;SDS011;67271;59.120;37.970;2023-06-14T01:46:43;4.72;;;2.92;;
77866;SDS011;67271;59.120;37.970;2023-06-14T01:49:10;5.93;;;2.90;;
77866;SDS011;67271;59.120;37.970;2023-06-14T01:51:37;5.70;;;2.80;;
77866;SDS011;67271;59.120;37.970;2023-06-14T01:54:03;4.80;;;3.05;;
77866;SDS011;67271;59.120;37.970;2023-06-14T01:56:30;3.97;;;2.75;;
77866;SDS011;67271;59.120;37.970;2023-06-14T01:58:58;7.55;;;2.90;;
77866;SDS011;67271;59.120;37.970;2023-06-14T02:01:24;5.38;;;3.20;;
77866;SDS011;67271;59.120;37.970;2023-06-14T02:03:51;4.82;;;3.03;;
77866;SDS011;67271;59.120;37.970;2023-06-14T02:06:16;4.38;;;2.83;;
77866;SDS011;67271;59.120;37.970;2023-06-14T02:08:42;5.72;;;3.53;;
77866;SDS011;67271;59.120;37.970;2023-06-14T02:11:08;4.22;;;2.55;;
77866;SDS011;67271;59.120;37.970;2023-06-14T02:13:34;3.22;;;2.72;;
77866;SDS011;67271;59.120;37.970;2023-06-14T02:16:00;4.68;;;2.95;;
77866;SDS011;67271;59.120;37.970;2023-06-14T02:18:28;4.82;;;2.90;;
77866;SDS011;67271;59.120;37.970;2023-06-14T02:20:55;5.60;;;3.05;;
77866;SDS011;67271;59.120;37.970;2023-06-14T02:23:21;5.18;;;3.15;;
77866;SDS011;67271;59.120;37.970;2023-06-14T02:25:47;8.35;;;3.10;;
77866;SDS011;67271;59.120;37.970;2023-06-14T02:28:13;7.95;;;3.03;;
77866;SDS011;67271;59.120;37.970;2023-06-14T02:30:39;6.30;;;3.22;;
77866;SDS011;67271;59.120;37.970;2023-06-14T02:33:06;4.68;;;2.75;;
77866;SDS011;67271;59.120;37.970;2023-06-14T02:35:32;4.22;;;3.17;;
77866;SDS011;67271;59.120;37.970;2023-06-14T02:37:57;4.30;;;3.00;;
77866;SDS011;67271;59.120;37.970;2023-06-14T02:40:24;15.77;;;3.25;;
77866;SDS011;67271;59.120;37.970;2023-06-14T02:42:50;4.10;;;3.15;;
77866;SDS011;67271;59.120;37.970;2023-06-14T02:45:16;5.85;;;3.40;;
77866;SDS011;67271;59.120;37.970;2023-06-14T02:47:43;4.35;;;3.05;;
77866;SDS011;67271;59.120;37.970;2023-06-14T02:50:11;4.97;;;3.30;;
77866;SDS011;67271;59.120;37.970;2023-06-14T02:52:37;7.25;;;3.45;;
77866;SDS011;67271;59.120;37.970;2023-06-14T02:55:03;7.93;;;3.22;;
77866;SDS011;67271;59.120;37.970;2023-06-14T02:57:30;5.75;;;3.15;;
77866;SDS011;67271;59.120;37.970;2023-06-14T02:59:56;9.70;;;3.10;;
77866;SDS011;67271;59.120;37.970;2023-06-14T03:02:24;7.03;;;3.03;;
77866;SDS011;67271;59.120;37.970;2023-06-14T03:04:50;5.20;;;3.13;;
77866;SDS011;67271;59.120;37.970;2023-06-14T03:07:18;7.82;;;3.38;;
77866;SDS011;67271;59.120;37.970;2023-06-14T03:09:48;8.40;;;3.42;;
77866;SDS011;67271;59.120;37.970;2023-06-14T03:12:17;8.82;;;3.42;;
77866;SDS011;67271;59.120;37.970;2023-06-14T03:14:43;9.32;;;3.97;;
77866;SDS011;67271;59.120;37.970;2023-06-14T03:17:11;7.55;;;3.55;;
77866;SDS011;67271;59.120;37.970;2023-06-14T03:19:39;8.48;;;3.65;;
77866;SDS011;67271;59.120;37.970;2023-06-14T03:22:07;8.00;;;4.05;;
77866;SDS011;67271;59.120;37.970;2023-06-14T03:24:33;8.25;;;3.90;;
77866;SDS011;67271;59.120;37.970;2023-06-14T03:27:05;8.50;;;3.95;;
77866;SDS011;67271;59.120;37.970;2023-06-14T03:29:31;6.07;;;3.42;;
77866;SDS011;67271;59.120;37.970;2023-06-14T03:31:58;10.15;;;3.05;;
77866;SDS011;67271;59.120;37.970;2023-06-14T03:34:33;8.18;;;3.85;;
77866;SDS011;67271;59.120;37.970;2023-06-14T03:36:58;7.32;;;3.35;;
77866;SDS011;67271;59.120;37.970;2023-06-14T03:39:25;6.03;;;3.00;;
77866;SDS011;67271;59.120;37.970;2023-06-14T03:41:51;6.60;;;4.10;;
77866;SDS011;67271;59.120;37.970;2023-06-14T03:44:17;7.97;;;3.58;;
77866;SDS011;67271;59.120;37.970;2023-06-14T03:46:45;11.90;;;4.05;;
77866;SDS011;67271;59.120;37.970;2023-06-14T03:49:12;5.22;;;3.80;;
77866;SDS011;67271;59.120;37.970;2023-06-14T03:51:38;21.90;;;4.18;;
77866;SDS011;67271;59.120;37.970;2023-06-14T03:54:05;9.73;;;4.38;;
77866;SDS011;67271;59.120;37.970;2023-06-14T03:56:32;8.75;;;3.85;;
77866;SDS011;67271;59.120;37.970;2023-06-14T03:58:58;8.93;;;3.75;;
77866;SDS011;67271;59.120;37.970;2023-06-14T04:01:27;6.50;;;3.47;;
77866;SDS011;67271;59.120;37.970;2023-06-14T04:03:57;6.80;;;3.92;;
77866;SDS011;67271;59.120;37.970;2023-06-14T04:06:24;7.75;;;3.60;;
77866;SDS011;67271;59.120;37.970;2023-06-14T04:08:57;9.82;;;3.67;;
77866;SDS011;67271;59.120;37.970;2023-06-14T04:11:27;13.13;;;4.15;;
77866;SDS011;67271;59.120;37.970;2023-06-14T04:13:53;18.10;;;4.57;;
77866;SDS011;67271;59.120;37.970;2023-06-14T04:16:22;14.50;;;4.20;;
77866;SDS011;67271;59.120;37.970;2023-06-14T04:18:48;21.23;;;4.72;;
77866;SDS011;67271;59.120;37.970;2023-06-14T04:21:17;21.27;;;5.35;;
77866;SDS011;67271;59.120;37.970;2023-06-14T04:23:45;19.33;;;5.82;;
77866;SDS011;67271;59.120;37.970;2023-06-14T04:26:13;16.45;;;5.78;;
77866;SDS011;67271;59.120;37.970;2023-06-14T04:28:40;13.70;;;5.63;;
77866;SDS011;67271;59.120;37.970;2023-06-14T04:31:08;35.00;;;5.40;;
77866;SDS011;67271;59.120;37.970;2023-06-14T04:33:37;15.30;;;4.90;;
77866;SDS011;67271;59.120;37.970;2023-06-14T04:36:12;12.02;;;5.10;;
77866;SDS011;67271;59.120;37.970;2023-06-14T04:38:39;22.63;;;6.05;;
77866;SDS011;67271;59.120;37.970;2023-06-14T04:41:08;22.15;;;5.55;;
77866;SDS011;67271;59.120;37.970;2023-06-14T04:43:37;24.60;;;6.07;;
77866;SDS011;67271;59.120;37.970;2023-06-14T04:46:05;23.85;;;6.53;;
77866;SDS011;67271;59.120;37.970;2023-06-14T04:48:37;21.45;;;6.30;;
77866;SDS011;67271;59.120;37.970;2023-06-14T04:51:06;16.80;;;6.43;;
77866;SDS011;67271;59.120;37.970;2023-06-14T04:53:33;24.65;;;7.20;;
77866;SDS011;67271;59.120;37.970;2023-06-14T04:55:59;28.58;;;6.20;;
77866;SDS011;67271;59.120;37.970;2023-06-14T04:58:26;24.98;;;6.32;;
77866;SDS011;67271;59.120;37.970;2023-06-14T05:00:54;28.17;;;7.97;;
77866;SDS011;67271;59.120;37.970;2023-06-14T05:03:22;26.27;;;8.25;;
77866;SDS011;67271;59.120;37.970;2023-06-14T05:05:49;26.85;;;6.57;;
77866;SDS011;67271;59.120;37.970;2023-06-14T05:08:16;24.35;;;8.82;;
77866;SDS011;67271;59.120;37.970;2023-06-14T05:10:42;30.38;;;8.23;;
77866;SDS011;67271;59.120;37.970;2023-06-14T05:13:08;27.95;;;8.48;;
77866;SDS011;67271;59.120;37.970;2023-06-14T05:15:36;30.63;;;8.65;;
77866;SDS011;67271;59.120;37.970;2023-06-14T05:18:02;33.55;;;12.13;;
77866;SDS011;67271;59.120;37.970;2023-06-14T05:20:28;37.97;;;10.25;;
77866;SDS011;67271;59.120;37.970;2023-06-14T05:22:54;32.83;;;11.68;;
77866;SDS011;67271;59.120;37.970;2023-06-14T05:25:24;39.60;;;10.80;;
77866;SDS011;67271;59.120;37.970;2023-06-14T05:27:50;31.75;;;11.02;;
77866;SDS011;67271;59.120;37.970;2023-06-14T05:30:16;42.13;;;11.40;;
77866;SDS011;67271;59.120;37.970;2023-06-14T05:35:10;46.58;;;15.35;;
77866;SDS011;67271;59.120;37.970;2023-06-14T05:37:36;42.15;;;14.80;;
77866;SDS011;67271;59.120;37.970;2023-06-14T05:40:02;50.70;;;18.13;;
77866;SDS011;67271;59.120;37.970;2023-06-14T05:42:32;59.08;;;17.92;;
77866;SDS011;67271;59.120;37.970;2023-06-14T05:44:58;42.97;;;19.00;;
77866;SDS011;67271;59.120;37.970;2023-06-14T05:47:25;55.58;;;18.33;;
77866;SDS011;67271;59.120;37.970;2023-06-14T05:49:53;48.97;;;17.55;;
77866;SDS011;67271;59.120;37.970;2023-06-14T05:52:20;48.95;;;17.73;;
77866;SDS011;67271;59.120;37.970;2023-06-14T05:54:46;41.28;;;19.80;;
77866;SDS011;67271;59.120;37.970;2023-06-14T05:57:12;49.22;;;19.70;;
77866;SDS011;67271;59.120;37.970;2023-06-14T05:59:38;48.50;;;17.90;;
77866;SDS011;67271;59.120;37.970;2023-06-14T06:02:04;46.47;;;16.98;;
77866;SDS011;67271;59.120;37.970;2023-06-14T06:04:30;40.35;;;15.93;;
77866;SDS011;67271;59.120;37.970;2023-06-14T06:06:56;35.92;;;16.05;;
77866;SDS011;67271;59.120;37.970;2023-06-14T06:09:22;39.70;;;14.95;;
77866;SDS011;67271;59.120;37.970;2023-06-14T06:11:48;25.50;;;12.38;;
77866;SDS011;67271;59.120;37.970;2023-06-14T06:14:14;27.98;;;11.75;;
77866;SDS011;67271;59.120;37.970;2023-06-14T06:16:40;31.50;;;11.48;;
77866;SDS011;67271;59.120;37.970;2023-06-14T06:19:07;30.92;;;11.32;;
77866;SDS011;67271;59.120;37.970;2023-06-14T06:21:33;24.15;;;9.70;;
77866;SDS011;67271;59.120;37.970;2023-06-14T06:23:59;18.45;;;9.27;;
77866;SDS011;67271;59.120;37.970;2023-06-14T06:26:28;20.48;;;9.18;;
77866;SDS011;67271;59.120;37.970;2023-06-14T06:28:55;16.45;;;6.97;;
77866;SDS011;67271;59.120;37.970;2023-06-14T06:31:22;14.40;;;6.13;;
77866;SDS011;67271;59.120;37.970;2023-06-14T06:33:49;18.88;;;7.93;;
77866;SDS011;67271;59.120;37.970;2023-06-14T06:36:15;20.23;;;7.57;;
77866;SDS011;67271;59.120;37.970;2023-06-14T06:38:42;15.00;;;7.07;;
77866;SDS011;67271;59.120;37.970;2023-06-14T06:41:07;15.73;;;6.72;;
77866;SDS011;67271;59.120;37.970;2023-06-14T06:43:33;20.65;;;7.40;;
77866;SDS011;67271;59.120;37.970;2023-06-14T06:46:01;26.63;;;9.82;;
77866;SDS011;67271;59.120;37.970;2023-06-14T06:48:27;21.58;;;8.80;;
77866;SDS011;67271;59.120;37.970;2023-06-14T06:50:54;27.05;;;10.50;;
77866;SDS011;67271;59.120;37.970;2023-06-14T06:53:20;33.67;;;10.20;;
77866;SDS011;67271;59.120;37.970;2023-06-14T06:55:46;36.47;;;10.98;;
77866;SDS011;67271;59.120;37.970;2023-06-14T06:58:13;34.83;;;10.95;;
77866;SDS011;67271;59.120;37.970;2023-06-14T07:00:39;35.83;;;12.13;;
77866;SDS011;67271;59.120;37.970;2023-06-14T07:03:06;31.65;;;11.50;;
77866;SDS011;67271;59.120;37.970;2023-06-14T07:05:32;39.13;;;12.95;;
77866;SDS011;67271;59.120;37.970;2023-06-14T07:07:58;23.13;;;10.38;;
77866;SDS011;67271;59.120;37.970;2023-06-14T07:10:24;24.90;;;10.95;;
77866;SDS011;67271;59.120;37.970;2023-06-14T07:12:50;27.50;;;11.20;;
77866;SDS011;67271;59.120;37.970;2023-06-14T07:15:17;43.88;;;14.68;;
77866;SDS011;67271;59.120;37.970;2023-06-14T07:17:43;42.55;;;14.52;;
77866;SDS011;67271;59.120;37.970;2023-06-14T07:20:09;37.70;;;15.05;;
77866;SDS011;67271;59.120;37.970;2023-06-14T07:22:41;16.92;;;8.75;;
77866;SDS011;67271;59.120;37.970;2023-06-14T07:25:11;16.40;;;8.05;;
77866;SDS011;67271;59.120;37.970;2023-06-14T07:27:40;12.60;;;6.65;;
77866;SDS011;67271;59.120;37.970;2023-06-14T07:30:07;14.63;;;6.40;;
77866;SDS011;67271;59.120;37.970;2023-06-14T07:32:33;11.07;;;5.40;;
77866;SDS011;67271;59.120;37.970;2023-06-14T07:34:59;8.00;;;4.78;;
77866;SDS011;67271;59.120;37.970;2023-06-14T07:37:25;6.80;;;3.90;;
77866;SDS011;67271;59.120;37.970;2023-06-14T07:39:51;5.63;;;3.63;;
77866;SDS011;67271;59.120;37.970;2023-06-14T07:42:17;6.55;;;3.65;;
77866;SDS011;67271;59.120;37.970;2023-06-14T07:44:43;8.70;;;5.22;;
77866;SDS011;67271;59.120;37.970;2023-06-14T07:47:09;11.98;;;4.63;;
77866;SDS011;67271;59.120;37.970;2023-06-14T07:49:35;10.73;;;5.30;;
77866;SDS011;67271;59.120;37.970;2023-06-14T07:52:01;9.32;;;4.85;;
77866;SDS011;67271;59.120;37.970;2023-06-14T07:54:27;15.25;;;4.97;;
77866;SDS011;67271;59.120;37.970;2023-06-14T07:56:53;10.77;;;4.43;;
77866;SDS011;67271;59.120;37.970;2023-06-14T07:59:19;17.83;;;4.15;;
77866;SDS011;67271;59.120;37.970;2023-06-14T08:01:45;11.52;;;4.80;;
77866;SDS011;67271;59.120;37.970;2023-06-14T08:04:13;16.73;;;5.20;;
77866;SDS011;67271;59.120;37.970;2023-06-14T08:06:40;6.55;;;4.68;;
77866;SDS011;67271;59.120;37.970;2023-06-14T08:09:10;10.90;;;5.85;;
77866;SDS011;67271;59.120;37.970;2023-06-14T08:11:36;8.85;;;4.13;;
77866;SDS011;67271;59.120;37.970;2023-06-14T08:14:02;12.75;;;5.47;;
77866;SDS011;67271;59.120;37.970;2023-06-14T08:16:28;8.38;;;5.20;;
77866;SDS011;67271;59.120;37.970;2023-06-14T08:18:55;7.32;;;4.85;;
77866;SDS011;67271;59.120;37.970;2023-06-14T08:21:21;9.27;;;5.05;;
77866;SDS011;67271;59.120;37.970;2023-06-14T08:23:47;12.85;;;5.45;;
77866;SDS011;67271;59.120;37.970;2023-06-14T08:26:13;9.25;;;4.72;;
77866;SDS011;67271;59.120;37.970;2023-06-14T08:28:39;7.22;;;4.80;;
77866;SDS011;67271;59.120;37.970;2023-06-14T08:31:04;9.98;;;4.72;;
77866;SDS011;67271;59.120;37.970;2023-06-14T08:33:31;9.73;;;4.70;;
77866;SDS011;67271;59.120;37.970;2023-06-14T08:36:00;13.60;;;4.40;;
77866;SDS011;67271;59.120;37.970;2023-06-14T08:38:25;5.88;;;4.43;;
77866;SDS011;67271;59.120;37.970;2023-06-14T08:40:52;8.73;;;4.20;;
77866;SDS011;67271;59.120;37.970;2023-06-14T08:43:25;7.22;;;4.30;;
77866;SDS011;67271;59.120;37.970;2023-06-14T08:45:58;8.18;;;4.53;;
77866;SDS011;67271;59.120;37.970;2023-06-14T08:48:26;16.85;;;3.97;;
77866;SDS011;67271;59.120;37.970;2023-06-14T08:50:53;8.30;;;4.10;;
77866;SDS011;67271;59.120;37.970;2023-06-14T08:56:07;6.03;;;3.97;;
77866;SDS011;67271;59.120;37.970;2023-06-14T08:58:47;5.18;;;3.78;;
77866;SDS011;67271;59.120;37.970;2023-06-14T09:01:23;10.85;;;5.32;;
77866;SDS011;67271;59.120;37.970;2023-06-14T09:03:49;6.63;;;4.35;;
77866;SDS011;67271;59.120;37.970;2023-06-14T09:06:16;9.15;;;5.15;;
77866;SDS011;67271;59.120;37.970;2023-06-14T09:08:44;8.30;;;4.70;;
77866;SDS011;67271;59.120;37.970;2023-06-14T09:11:14;8.05;;;4.53;;
77866;SDS011;67271;59.120;37.970;2023-06-14T09:13:41;6.72;;;3.70;;
77866;SDS011;67271;59.120;37.970;2023-06-14T09:16:08;8.25;;;3.88;;
77866;SDS011;67271;59.120;37.970;2023-06-14T09:18:37;5.45;;;4.18;;
77866;SDS011;67271;59.120;37.970;2023-06-14T09:21:06;7.63;;;4.20;;
77866;SDS011;67271;59.120;37.970;2023-06-14T09:23:37;8.20;;;3.75;;
77866;SDS011;67271;59.120;37.970;2023-06-14T09:26:13;10.32;;;4.30;;
77866;SDS011;67271;59.120;37.970;2023-06-14T09:28:41;7.05;;;3.53;;
77866;SDS011;67271;59.120;37.970;2023-06-14T09:31:11;6.75;;;3.92;;
77866;SDS011;67271;59.120;37.970;2023-06-14T09:33:41;6.15;;;4.00;;
77866;SDS011;67271;59.120;37.970;2023-06-14T09:36:16;7.88;;;4.13;;
77866;SDS011;67271;59.120;37.970;2023-06-14T09:38:53;9.32;;;4.03;;
77866;SDS011;67271;59.120;37.970;2023-06-14T09:41:29;12.48;;;4.75;;
77866;SDS011;67271;59.120;37.970;2023-06-14T09:43:59;7.43;;;4.07;;
77866;SDS011;67271;59.120;37.970;2023-06-14T09:46:27;6.65;;;4.28;;
77866;SDS011;67271;59.120;37.970;2023-06-14T09:49:00;9.35;;;4.47;;
77866;SDS011;67271;59.120;37.970;2023-06-14T09:51:27;7.28;;;3.85;;
77866;SDS011;67271;59.120;37.970;2023-06-14T09:54:01;6.38;;;4.35;;
77866;SDS011;67271;59.120;37.970;2023-06-14T09:56:34;10.60;;;4.65;;
77866;SDS011;67271;59.120;37.970;2023-06-14T09:59:03;12.23;;;4.35;;
77866;SDS011;67271;59.120;37.970;2023-06-14T10:01:30;7.85;;;3.83;;
77866;SDS011;67271;59.120;37.970;2023-06-14T10:04:02;6.35;;;4.07;;
77866;SDS011;67271;59.120;37.970;2023-06-14T10:06:33;6.28;;;3.85;;
77866;SDS011;67271;59.120;37.970;2023-06-14T10:09:03;9.13;;;4.03;;
77866;SDS011;67271;59.120;37.970;2023-06-14T10:11:31;8.80;;;4.32;;
77866;SDS011;67271;59.120;37.970;2023-06-14T10:13:57;9.43;;;4.32;;
77866;SDS011;67271;59.120;37.970;2023-06-14T10:19:24;6.70;;;3.60;;
77866;SDS011;67271;59.120;37.970;2023-06-14T10:22:04;4.68;;;3.70;;
77866;SDS011;67271;59.120;37.970;2023-06-14T10:24:40;5.82;;;3.50;;
77866;SDS011;67271;59.120;37.970;2023-06-14T10:27:11;9.18;;;4.43;;
77866;SDS011;67271;59.120;37.970;2023-06-14T10:32:26;9.80;;;4.00;;
77866;SDS011;67271;59.120;37.970;2023-06-14T10:34:55;6.88;;;4.22;;
77866;SDS011;67271;59.120;37.970;2023-06-14T10:37:22;6.22;;;3.60;;
77866;SDS011;67271;59.120;37.970;2023-06-14T10:39:52;7.18;;;3.92;;
77866;SDS011;67271;59.120;37.970;2023-06-14T10:42:21;6.25;;;4.28;;
77866;SDS011;67271;59.120;37.970;2023-06-14T10:44:53;11.02;;;4.45;;
77866;SDS011;67271;59.120;37.970;2023-06-14T10:47:32;8.55;;;4.65;;
77866;SDS011;67271;59.120;37.970;2023-06-14T10:50:08;8.13;;;4.28;;
77866;SDS011;67271;59.120;37.970;2023-06-14T10:52:40;6.60;;;4.38;;
77866;SDS011;67271;59.120;37.970;2023-06-14T10:55:09;5.72;;;3.88;;
77866;SDS011;67271;59.120;37.970;2023-06-14T11:00:18;7.82;;;4.65;;
77866;SDS011;67271;59.120;37.970;2023-06-14T11:05:27;6.10;;;4.18;;
77866;SDS011;67271;59.120;37.970;2023-06-14T11:10:38;5.38;;;3.72;;
77866;SDS011;67271;59.120;37.970;2023-06-14T11:13:08;7.10;;;4.18;;
77866;SDS011;67271;59.120;37.970;2023-06-14T11:15:37;7.10;;;3.78;;
77866;SDS011;67271;59.120;37.970;2023-06-14T11:18:07;7.47;;;4.15;;
77866;SDS011;67271;59.120;37.970;2023-06-14T11:20:36;5.82;;;3.70;;
77866;SDS011;67271;59.120;37.970;2023-06-14T11:23:03;9.48;;;3.92;;
77866;SDS011;67271;59.120;37.970;2023-06-14T11:25:29;7.55;;;5.05;;
77866;SDS011;67271;59.120;37.970;2023-06-14T11:27:56;13.95;;;4.30;;
77866;SDS011;67271;59.120;37.970;2023-06-14T11:30:23;8.27;;;4.20;;
77866;SDS011;67271;59.120;37.970;2023-06-14T11:32:51;13.23;;;4.95;;
77866;SDS011;67271;59.120;37.970;2023-06-14T11:35:19;8.18;;;4.38;;
77866;SDS011;67271;59.120;37.970;2023-06-14T11:37:48;6.75;;;4.38;;
77866;SDS011;67271;59.120;37.970;2023-06-14T11:40:17;8.60;;;4.07;;
77866;SDS011;67271;59.120;37.970;2023-06-14T11:42:43;6.28;;;4.28;;
77866;SDS011;67271;59.120;37.970;2023-06-14T11:45:10;5.88;;;4.30;;
77866;SDS011;67271;59.120;37.970;2023-06-14T11:47:38;7.60;;;3.80;;
77866;SDS011;67271;59.120;37.970;2023-06-14T11:50:05;7.28;;;4.00;;
77866;SDS011;67271;59.120;37.970;2023-06-14T11:52:34;6.68;;;4.00;;
77866;SDS011;67271;59.120;37.970;2023-06-14T11:55:00;8.43;;;4.38;;
77866;SDS011;67271;59.120;37.970;2023-06-14T11:57:29;6.57;;;4.43;;
77866;SDS011;67271;59.120;37.970;2023-06-14T11:59:55;6.28;;;4.72;;
77866;SDS011;67271;59.120;37.970;2023-06-14T12:02:21;9.68;;;4.68;;
77866;SDS011;67271;59.120;37.970;2023-06-14T12:04:48;7.10;;;4.18;;
77866;SDS011;67271;59.120;37.970;2023-06-14T12:07:16;15.18;;;4.97;;
77866;SDS011;67271;59.120;37.970;2023-06-14T12:10:03;6.45;;;4.78;;
77866;SDS011;67271;59.120;37.970;2023-06-14T12:12:34;7.60;;;4.30;;
77866;SDS011;67271;59.120;37.970;2023-06-14T12:15:03;6.03;;;3.75;;
77866;SDS011;67271;59.120;37.970;2023-06-14T12:17:34;11.15;;;3.90;;
77866;SDS011;67271;59.120;37.970;2023-06-14T12:20:08;6.10;;;4.35;;
77866;SDS011;67271;59.120;37.970;2023-06-14T12:22:59;5.18;;;3.80;;
77866;SDS011;67271;59.120;37.970;2023-06-14T12:25:36;12.02;;;5.00;;
77866;SDS011;67271;59.120;37.970;2023-06-14T12:28:06;12.00;;;5.60;;
77866;SDS011;67271;59.120;37.970;2023-06-14T12:30:36;10.55;;;6.22;;
77866;SDS011;67271;59.120;37.970;2023-06-14T12:33:06;7.70;;;5.30;;
77866;SDS011;67271;59.120;37.970;2023-06-14T12:35:32;7.75;;;4.18;;
77866;SDS011;67271;59.120;37.970;2023-06-14T12:37:58;8.35;;;4.75;;
77866;SDS011;67271;59.120;37.970;2023-06-14T12:40:26;7.95;;;5.15;;
77866;SDS011;67271;59.120;37.970;2023-06-14T12:43:09;14.02;;;5.40;;
77866;SDS011;67271;59.120;37.970;2023-06-14T12:45:35;10.93;;;4.70;;
77866;SDS011;67271;59.120;37.970;2023-06-14T12:48:04;8.07;;;4.35;;
77866;SDS011;67271;59.120;37.970;2023-06-14T12:50:30;13.05;;;5.00;;
77866;SDS011;67271;59.120;37.970;2023-06-14T12:52:56;10.43;;;4.30;;
77866;SDS011;67271;59.120;37.970;2023-06-14T12:55:22;11.68;;;4.53;;
77866;SDS011;67271;59.120;37.970;2023-06-14T12:57:48;9.40;;;5.35;;
77866;SDS011;67271;59.120;37.970;2023-06-14T13:00:15;7.75;;;4.40;;
77866;SDS011;67271;59.120;37.970;2023-06-14T13:02:42;6.70;;;4.40;;
77866;SDS011;67271;59.120;37.970;2023-06-14T13:05:09;9.60;;;4.68;;
77866;SDS011;67271;59.120;37.970;2023-06-14T13:07:35;7.03;;;4.50;;
77866;SDS011;67271;59.120;37.970;2023-06-14T13:10:17;16.52;;;4.38;;
77866;SDS011;67271;59.120;37.970;2023-06-14T13:12:43;5.93;;;4.00;;
77866;SDS011;67271;59.120;37.970;2023-06-14T13:15:10;7.07;;;4.80;;
77866;SDS011;67271;59.120;37.970;2023-06-14T13:17:36;10.13;;;4.32;;
77866;SDS011;67271;59.120;37.970;2023-06-14T13:20:05;13.70;;;4.97;;
77866;SDS011;67271;59.120;37.970;2023-06-14T13:22:32;8.75;;;4.40;;
77866;SDS011;67271;59.120;37.970;2023-06-14T13:27:49;9.02;;;4.47;;
77866;SDS011;67271;59.120;37.970;2023-06-14T13:30:15;10.05;;;4.18;;
77866;SDS011;67271;59.120;37.970;2023-06-14T13:32:41;7.22;;;4.50;;
77866;SDS011;67271;59.120;37.970;2023-06-14T13:35:08;7.72;;;4.22;;
77866;SDS011;67271;59.120;37.970;2023-06-14T13:37:34;12.48;;;4.30;;
77866;SDS011;67271;59.120;37.970;2023-06-14T13:40:00;8.73;;;5.15;;
77866;SDS011;67271;59.120;37.970;2023-06-14T13:42:26;6.95;;;3.90;;
77866;SDS011;67271;59.120;37.970;2023-06-14T13:44:53;7.82;;;3.92;;
77866;SDS011;67271;59.120;37.970;2023-06-14T13:47:19;15.02;;;4.68;;
77866;SDS011;67271;59.120;37.970;2023-06-14T13:49:45;8.38;;;4.15;;
77866;SDS011;67271;59.120;37.970;2023-06-14T13:52:11;7.65;;;4.15;;
77866;SDS011;67271;59.120;37.970;2023-06-14T13:54:38;10.48;;;4.35;;
77866;SDS011;67271;59.120;37.970;2023-06-14T13:57:04;8.50;;;5.15;;
77866;SDS011;67271;59.120;37.970;2023-06-14T13:59:31;7.30;;;4.60;;
77866;SDS011;67271;59.120;37.970;2023-06-14T14:01:58;10.82;;;4.15;;
77866;SDS011;67271;59.120;37.970;2023-06-14T14:04:23;6.50;;;4.30;;
77866;SDS011;67271;59.120;37.970;2023-06-14T14:06:49;11.80;;;5.95;;
77866;SDS011;67271;59.120;37.970;2023-06-14T14:09:15;11.85;;;4.00;;
77866;SDS011;67271;59.120;37.970;2023-06-14T14:11:41;5.65;;;4.10;;
77866;SDS011;67271;59.120;37.970;2023-06-14T14:14:07;7.00;;;4.03;;
77866;SDS011;67271;59.120;37.970;2023-06-14T14:16:33;8.13;;;5.05;;
77866;SDS011;67271;59.120;37.970;2023-06-14T14:19:00;11.27;;;5.43;;
77866;SDS011;67271;59.120;37.970;2023-06-14T14:21:27;9.88;;;4.57;;
77866;SDS011;67271;59.120;37.970;2023-06-14T14:23:53;10.98;;;4.53;;
77866;SDS011;67271;59.120;37.970;2023-06-14T14:26:19;6.47;;;4.30;;
77866;SDS011;67271;59.120;37.970;2023-06-14T14:28:45;8.13;;;4.53;;
77866;SDS011;67271;59.120;37.970;2023-06-14T14:33:47;6.22;;;4.28;;
77866;SDS011;67271;59.120;37.970;2023-06-14T14:36:13;7.32;;;4.35;;
77866;SDS011;67271;59.120;37.970;2023-06-14T14:38:39;7.70;;;4.18;;
77866;SDS011;67271;59.120;37.970;2023-06-14T14:41:05;6.78;;;4.63;;
77866;SDS011;67271;59.120;37.970;2023-06-14T14:43:31;11.80;;;6.93;;
77866;SDS011;67271;59.120;37.970;2023-06-14T14:45:57;7.70;;;5.18;;
77866;SDS011;67271;59.120;37.970;2023-06-14T14:48:23;7.18;;;4.70;;
77866;SDS011;67271;59.120;37.970;2023-06-14T14:50:49;8.07;;;4.60;;
77866;SDS011;67271;59.120;37.970;2023-06-14T14:53:15;6.78;;;3.95;;
77866;SDS011;67271;59.120;37.970;2023-06-14T14:55:42;7.85;;;4.35;;
77866;SDS011;67271;59.120;37.970;2023-06-14T14:58:08;5.88;;;4.63;;
77866;SDS011;67271;59.120;37.970;2023-06-14T15:00:34;11.05;;;6.10;;
77866;SDS011;67271;59.120;37.970;2023-06-14T15:03:00;7.03;;;4.45;;
77866;SDS011;67271;59.120;37.970;2023-06-14T15:05:26;6.25;;;4.00;;